Time;durP1;ratioP1;P1;durP2;ratioP2;P2;SDS_P1;SDS_P2;PMS_P1;PMS_P2;Temp;Humidity;BMP_temperature;BMP_pressure;BME280_temperature;BME280_humidity;BME280_pressure;Samples;Min_cycle;Max_cycle;Signal;HPM_P1;HPM_P2
2022/11/06 00:00:37;;;;;;;;;;;9.70;99.90;;;;;;5062236;28;19912;-84
2022/11/06 00:03:02;;;;;;;;;;;9.60;99.90;;;;;;5046118;28;19909;-82
2022/11/06 00:08:12;;;;;;;;;;;9.70;99.90;;;;;;5068977;22;19975;-82
2022/11/06 00:10:38;;;;;;;;;;;9.60;99.90;;;;;;5058166;28;20318;-83
2022/11/06 00:13:03;;;;;;;;;;;9.60;99.90;;;;;;5060106;28;19939;-83
2022/11/06 00:15:29;;;;;;;;;;;9.60;99.90;;;;;;5059330;28;20383;-83
2022/11/06 00:17:54;;;;;;;;;;;9.60;99.90;;;;;;5060211;28;20005;-83
2022/11/06 00:20:20;;;;;;;;;;;9.60;99.90;;;;;;5058691;28;19917;-83
2022/11/06 00:22:45;;;;;;;;;;;9.60;99.90;;;;;;5059669;28;19944;-83
2022/11/06 00:25:11;;;;;;;;;;;9.60;99.90;;;;;;5060202;28;19955;-83
2022/11/06 00:27:37;;;;;;;;;;;9.60;99.90;;;;;;5061503;28;19916;-83
2022/11/06 00:30:03;;;;;;;;;;;9.60;99.90;;;;;;5059824;28;19908;-83
2022/11/06 00:32:28;;;;;;;;;;;9.50;99.90;;;;;;5060271;28;20433;-84
2022/11/06 00:34:54;;;;;;;;;;;9.50;99.90;;;;;;5060261;28;19916;-84
2022/11/06 00:37:19;;;;;;;;;;;9.50;99.90;;;;;;5062886;28;19920;-84
2022/11/06 00:39:45;;;;;;;;;;;9.50;99.90;;;;;;5064621;28;19919;-84
2022/11/06 00:42:10;;;;;;;;;;;9.50;99.90;;;;;;5066279;28;19913;-83
2022/11/06 00:44:36;;;;;;;;;;;9.50;99.90;;;;;;5065438;28;19988;-84
2022/11/06 00:47:01;;;;;;;;;;;9.40;99.90;;;;;;5065495;28;19909;-82
2022/11/06 00:49:27;;;;;;;;;;;9.40;99.90;;;;;;5064477;28;20433;-83
2022/11/06 00:51:52;;;;;;;;;;;9.40;99.90;;;;;;5065341;28;19909;-84
2022/11/06 00:54:18;;;;;;;;;;;9.40;99.90;;;;;;5066338;28;19909;-82
2022/11/06 00:56:43;;;;;;;;;;;9.40;99.90;;;;;;5064488;28;19913;-84
2022/11/06 00:59:10;;;;;;;;;;;9.40;99.90;;;;;;5064563;28;19908;-83
2022/11/06 01:01:37;;;;;;;;;;;9.40;99.90;;;;;;5063915;28;19919;-84
2022/11/06 01:04:04;;;;;;;;;;;9.40;99.90;;;;;;5064256;28;19909;-83
2022/11/06 01:06:31;;;;;;;;;;;9.40;99.90;;;;;;5062582;28;19908;-83
2022/11/06 01:08:56;;;;;;;;;;;9.40;99.90;;;;;;5063827;28;19959;-82
2022/11/06 01:11:22;;;;;;;;;;;9.40;99.90;;;;;;5063189;28;19916;-82
2022/11/06 01:13:48;;;;;;;;;;;9.40;99.90;;;;;;5062573;28;20012;-83
2022/11/06 01:16:14;;;;;;;;;;;9.40;99.90;;;;;;5062093;28;19913;-82
2022/11/06 01:18:40;;;;;;;;;;;9.40;99.90;;;;;;5063746;28;19996;-83
2022/11/06 01:21:13;;;;;;;;;;;9.40;99.90;;;;;;5061029;28;19920;-83
2022/11/06 01:23:39;;;;;;;;;;;9.40;99.90;;;;;;5063340;28;19909;-83
2022/11/06 01:26:06;;;;;;;;;;;9.40;99.90;;;;;;5063397;28;19943;-82
2022/11/06 01:28:32;;;;;;;;;;;9.40;99.90;;;;;;5061561;28;20284;-84
2022/11/06 01:31:04;;;;;;;;;;;9.40;99.90;;;;;;5064425;28;19909;-83
2022/11/06 01:33:29;;;;;;;;;;;9.40;99.90;;;;;;5064027;28;19971;-83
2022/11/06 01:35:55;;;;;;;;;;;9.40;99.90;;;;;;5064933;28;19909;-83
2022/11/06 01:38:20;;;;;;;;;;;9.50;99.90;;;;;;5064628;28;19909;-82
2022/11/06 01:40:47;;;;;;;;;;;9.40;99.90;;;;;;5065873;28;19968;-84
2022/11/06 01:43:14;;;;;;;;;;;9.40;99.90;;;;;;5065911;28;19909;-83
2022/11/06 01:45:41;;;;;;;;;;;9.40;99.90;;;;;;5065052;28;19916;-84
2022/11/06 01:48:07;;;;;;;;;;;9.40;99.90;;;;;;5063419;28;19908;-80
2022/11/06 01:50:33;;;;;;;;;;;9.40;99.90;;;;;;5065308;28;19924;-84
2022/11/06 01:53:01;;;;;;;;;;;9.40;99.90;;;;;;5064004;28;19932;-84
2022/11/06 01:55:29;;;;;;;;;;;9.40;99.90;;;;;;5062672;28;19916;-84
2022/11/06 01:57:56;;;;;;;;;;;9.40;99.90;;;;;;5061683;28;19909;-83
2022/11/06 02:00:21;;;;;;;;;;;9.40;99.90;;;;;;5064469;28;19912;-82
2022/11/06 02:02:48;;;;;;;;;;;9.40;99.90;;;;;;5064587;28;19908;-82
2022/11/06 02:05:14;;;;;;;;;;;9.40;99.90;;;;;;5064088;28;19926;-83
2022/11/06 02:07:41;;;;;;;;;;;9.40;99.90;;;;;;5060971;28;19976;-82
2022/11/06 02:10:07;;;;;;;;;;;9.30;99.90;;;;;;5063549;28;20273;-83
2022/11/06 02:12:35;;;;;;;;;;;9.30;99.90;;;;;;5062269;28;19916;-84
2022/11/06 02:15:20;;;;;;;;;;;9.40;99.90;;;;;;5065454;28;20268;-83
2022/11/06 02:17:45;;;;;;;;;;;9.30;99.90;;;;;;5061131;28;19909;-84
2022/11/06 02:20:25;;;;;;;;;;;9.30;99.90;;;;;;5061759;28;19923;-82
2022/11/06 02:22:50;;;;;;;;;;;9.30;99.90;;;;;;5060606;28;19909;-82
2022/11/06 02:25:25;;;;;;;;;;;9.30;99.90;;;;;;5060508;28;19948;-80
2022/11/06 02:27:53;;;;;;;;;;;9.30;99.90;;;;;;5059398;28;20332;-82
2022/11/06 02:30:18;;;;;;;;;;;9.30;99.90;;;;;;5061891;28;19916;-83
2022/11/06 02:32:47;;;;;;;;;;;9.30;99.90;;;;;;5060763;28;20276;-81
2022/11/06 02:35:15;;;;;;;;;;;9.30;99.90;;;;;;5057329;28;19909;-83
2022/11/06 02:37:42;;;;;;;;;;;9.30;99.90;;;;;;5062771;28;19913;-81
2022/11/06 02:40:09;;;;;;;;;;;9.30;99.90;;;;;;5058389;28;19913;-82
2022/11/06 02:42:37;;;;;;;;;;;9.30;99.90;;;;;;5059647;28;19909;-84
2022/11/06 02:45:03;;;;;;;;;;;9.30;99.90;;;;;;5057642;28;19909;-82
2022/11/06 02:47:31;;;;;;;;;;;9.30;99.90;;;;;;5060445;28;19908;-83
2022/11/06 02:50:00;;;;;;;;;;;9.40;99.90;;;;;;5058369;28;19909;-83
2022/11/06 02:52:29;;;;;;;;;;;9.40;99.90;;;;;;5059134;28;19916;-82
2022/11/06 02:54:57;;;;;;;;;;;9.30;99.90;;;;;;5060982;28;19915;-81
2022/11/06 02:57:24;;;;;;;;;;;9.40;99.90;;;;;;5061542;28;19909;-83
2022/11/06 02:59:53;;;;;;;;;;;9.30;99.90;;;;;;5063096;28;20008;-84
2022/11/06 03:02:21;;;;;;;;;;;9.30;99.90;;;;;;5060327;28;19909;-84
2022/11/06 03:04:47;;;;;;;;;;;9.30;99.90;;;;;;5056995;28;20433;-81
2022/11/06 03:07:23;;;;;;;;;;;9.30;99.90;;;;;;5057717;28;19912;-82
2022/11/06 03:09:49;;;;;;;;;;;9.30;99.90;;;;;;5058714;28;19909;-84
2022/11/06 03:12:14;;;;;;;;;;;9.30;99.90;;;;;;5058841;28;19916;-84
2022/11/06 03:14:49;;;;;;;;;;;9.30;99.90;;;;;;5059120;28;19909;-84
2022/11/06 03:17:21;;;;;;;;;;;9.30;99.90;;;;;;5056061;28;19909;-83
2022/11/06 03:19:50;;;;;;;;;;;9.30;99.90;;;;;;5058560;28;20027;-81
2022/11/06 03:22:27;;;;;;;;;;;9.20;99.90;;;;;;5055723;28;19915;-81
2022/11/06 03:24:55;;;;;;;;;;;9.20;99.90;;;;;;5058208;28;19923;-82
2022/11/06 03:27:31;;;;;;;;;;;9.20;99.90;;;;;;5057949;28;20331;-82
2022/11/06 03:30:07;;;;;;;;;;;9.20;99.90;;;;;;5056788;28;20003;-83
2022/11/06 03:32:35;;;;;;;;;;;9.20;99.90;;;;;;5058877;28;19909;-83
2022/11/06 03:35:16;;;;;;;;;;;9.10;99.90;;;;;;5059508;28;19909;-84
2022/11/06 03:37:45;;;;;;;;;;;9.20;99.90;;;;;;5056556;28;19974;-82
2022/11/06 03:40:14;;;;;;;;;;;9.10;99.90;;;;;;5061454;28;19924;-81
2022/11/06 03:42:40;;;;;;;;;;;9.10;99.90;;;;;;5060556;28;20354;-81
2022/11/06 03:45:08;;;;;;;;;;;9.10;99.90;;;;;;5060678;28;19947;-80
2022/11/06 03:47:33;;;;;;;;;;;9.10;99.90;;;;;;5061143;28;19913;-81
2022/11/06 03:50:22;;;;;;;;;;;9.10;99.90;;;;;;5061017;28;20257;-82
2022/11/06 03:52:55;;;;;;;;;;;9.10;99.90;;;;;;5052905;28;19959;-82
2022/11/06 03:55:23;;;;;;;;;;;9.10;99.90;;;;;;5060557;28;19916;-82
2022/11/06 03:57:51;;;;;;;;;;;9.00;99.90;;;;;;5059210;28;19908;-81
2022/11/06 04:00:19;;;;;;;;;;;9.00;99.90;;;;;;5060727;28;19913;-81
2022/11/06 04:02:50;;;;;;;;;;;9.00;99.90;;;;;;5059822;28;19908;-81
2022/11/06 04:05:19;;;;;;;;;;;9.00;99.90;;;;;;5058754;28;20368;-83
2022/11/06 04:13:56;;;;;;;;;;;9.00;99.90;;;;;;5058277;28;19984;-84
2022/11/06 04:16:04;;;;;;;;;;;9.00;99.90;;;;;;5061446;28;19939;-84
2022/11/06 04:18:30;;;;;;;;;;;9.00;99.90;;;;;;5064310;28;19909;-84
2022/11/06 04:21:21;;;;;;;;;;;9.00;99.90;;;;;;5062857;28;19913;-82
2022/11/06 04:27:05;;;;;;;;;;;9.00;99.90;;;;;;5035950;28;19995;-83
2022/11/06 04:29:31;;;;;;;;;;;9.00;99.90;;;;;;5054560;28;19908;-84
2022/11/06 04:32:06;;;;;;;;;;;9.00;99.90;;;;;;5065278;28;20222;-83
2022/11/06 04:34:39;;;;;;;;;;;9.00;99.90;;;;;;5065406;28;20291;-84
2022/11/06 04:37:07;;;;;;;;;;;9.00;99.90;;;;;;5064078;28;19931;-84
2022/11/06 04:39:53;;;;;;;;;;;9.00;99.90;;;;;;5061263;28;19958;-84
2022/11/06 04:42:25;;;;;;;;;;;9.00;99.90;;;;;;5052210;28;19909;-84
2022/11/06 04:44:54;;;;;;;;;;;9.00;99.90;;;;;;5060377;28;19971;-81
2022/11/06 04:47:21;;;;;;;;;;;8.90;99.90;;;;;;5060049;28;19956;-82
2022/11/06 04:49:47;;;;;;;;;;;8.90;99.90;;;;;;5066100;28;19996;-84
2022/11/06 04:52:19;;;;;;;;;;;8.90;99.90;;;;;;5064760;28;19959;-84
2022/11/06 04:54:44;;;;;;;;;;;8.90;99.90;;;;;;5062197;28;19954;-80
2022/11/06 04:57:10;;;;;;;;;;;8.90;99.90;;;;;;5063069;28;19940;-83
2022/11/06 04:59:36;;;;;;;;;;;8.90;99.90;;;;;;5062121;28;19916;-83
2022/11/06 05:02:02;;;;;;;;;;;8.90;99.90;;;;;;5058767;28;19916;-81
2022/11/06 05:04:27;;;;;;;;;;;8.90;99.90;;;;;;5058807;28;19909;-84
2022/11/06 05:06:53;;;;;;;;;;;8.90;99.90;;;;;;5059810;28;19967;-82
2022/11/06 05:09:18;;;;;;;;;;;9.00;99.90;;;;;;5058347;28;20284;-81
2022/11/06 05:11:44;;;;;;;;;;;9.00;99.90;;;;;;5057606;28;19987;-83
2022/11/06 05:14:09;;;;;;;;;;;9.00;99.90;;;;;;5058818;28;19915;-82
2022/11/06 05:16:35;;;;;;;;;;;9.00;99.90;;;;;;5058321;28;19960;-84
2022/11/06 05:19:00;;;;;;;;;;;8.90;99.90;;;;;;5060001;28;19959;-84
2022/11/06 05:24:10;;;;;;;;;;;8.90;99.90;;;;;;5059093;28;19915;-84
2022/11/06 05:26:35;;;;;;;;;;;9.00;99.90;;;;;;5059552;28;19909;-84
2022/11/06 05:29:01;;;;;;;;;;;9.00;99.90;;;;;;5059267;28;19909;-82
2022/11/06 05:31:26;;;;;;;;;;;9.00;99.90;;;;;;5057549;28;20445;-83
2022/11/06 05:33:52;;;;;;;;;;;9.00;99.90;;;;;;5059212;28;19940;-84
2022/11/06 05:36:18;;;;;;;;;;;9.00;99.90;;;;;;5059588;28;19912;-83
2022/11/06 05:38:43;;;;;;;;;;;9.00;99.90;;;;;;5060338;28;20334;-81
2022/11/06 05:41:09;;;;;;;;;;;9.00;99.90;;;;;;5062888;28;19959;-81
2022/11/06 05:43:34;;;;;;;;;;;9.10;99.90;;;;;;5060759;28;19908;-83
2022/11/06 05:46:00;;;;;;;;;;;9.00;99.90;;;;;;5060099;28;19909;-83
2022/11/06 05:48:26;;;;;;;;;;;9.00;99.90;;;;;;5063000;28;19908;-80
2022/11/06 05:50:51;;;;;;;;;;;9.00;99.90;;;;;;5060461;28;19960;-82
2022/11/06 05:53:17;;;;;;;;;;;9.00;99.90;;;;;;5061230;28;20372;-81
2022/11/06 05:55:44;;;;;;;;;;;9.00;99.90;;;;;;5060737;28;19916;-82
2022/11/06 05:58:09;;;;;;;;;;;9.10;99.90;;;;;;5063808;28;19917;-82
2022/11/06 06:00:35;;;;;;;;;;;9.10;99.90;;;;;;5061381;28;19917;-84
2022/11/06 06:03:01;;;;;;;;;;;9.10;99.90;;;;;;5063782;28;19909;-84
2022/11/06 06:05:26;;;;;;;;;;;9.10;99.90;;;;;;5062554;28;19915;-84
2022/11/06 06:07:52;;;;;;;;;;;9.10;99.90;;;;;;5062916;23;19928;-84
2022/11/06 06:10:17;;;;;;;;;;;9.10;99.90;;;;;;5038847;28;19909;-83
2022/11/06 06:12:43;;;;;;;;;;;9.10;99.90;;;;;;5058047;28;19909;-84
2022/11/06 06:15:08;;;;;;;;;;;9.00;99.90;;;;;;5056733;28;19909;-81
2022/11/06 06:17:34;;;;;;;;;;;9.00;99.90;;;;;;5042912;28;19931;-82
2022/11/06 06:19:59;;;;;;;;;;;9.00;99.90;;;;;;5059802;28;20006;-84
2022/11/06 06:22:25;;;;;;;;;;;9.00;99.90;;;;;;5078638;28;20367;-83
2022/11/06 06:24:50;;;;;;;;;;;9.00;99.90;;;;;;5077926;28;19966;-82
2022/11/06 06:27:16;;;;;;;;;;;8.90;99.90;;;;;;5077341;28;19952;-82
2022/11/06 06:29:41;;;;;;;;;;;9.00;99.90;;;;;;5076426;28;20024;-83
2022/11/06 06:32:07;;;;;;;;;;;9.00;99.90;;;;;;5058777;28;19947;-84
2022/11/06 06:34:32;;;;;;;;;;;9.00;99.90;;;;;;5076604;28;19915;-82
2022/11/06 06:36:57;;;;;;;;;;;8.90;99.90;;;;;;5075891;28;19948;-83
2022/11/06 06:39:23;;;;;;;;;;;8.90;99.90;;;;;;5075705;28;19916;-83
2022/11/06 06:41:48;;;;;;;;;;;8.90;99.90;;;;;;5057679;28;19947;-82
2022/11/06 06:44:14;;;;;;;;;;;8.90;99.90;;;;;;5076179;28;20337;-82
2022/11/06 06:46:40;;;;;;;;;;;8.90;99.90;;;;;;5057148;28;20015;-82
2022/11/06 06:49:05;;;;;;;;;;;8.90;99.90;;;;;;5076658;28;20275;-83
2022/11/06 06:51:31;;;;;;;;;;;8.90;99.90;;;;;;5076975;28;19962;-83
2022/11/06 06:53:56;;;;;;;;;;;8.90;99.90;;;;;;5077649;28;19913;-83
2022/11/06 06:56:22;;;;;;;;;;;8.90;99.90;;;;;;5076415;28;20376;-84
2022/11/06 06:58:47;;;;;;;;;;;8.90;99.90;;;;;;5077949;28;20014;-83
2022/11/06 07:01:13;;;;;;;;;;;8.90;99.90;;;;;;5077101;28;19982;-83
2022/11/06 07:03:38;;;;;;;;;;;8.90;99.90;;;;;;5081101;28;19908;-84
2022/11/06 07:06:05;;;;;;;;;;;9.00;99.90;;;;;;5079854;28;19912;-81
2022/11/06 07:08:30;;;;;;;;;;;9.00;99.90;;;;;;5081179;28;19916;-81
2022/11/06 07:11:00;;;;;;;;;;;9.00;99.90;;;;;;5061690;28;20264;-80
2022/11/06 07:13:25;;;;;;;;;;;9.00;99.90;;;;;;5079136;28;20333;-80
2022/11/06 07:15:51;;;;;;;;;;;9.00;99.90;;;;;;5062666;28;19908;-80
2022/11/06 07:18:16;;;;;;;;;;;9.10;99.90;;;;;;5079973;28;19908;-81
2022/11/06 07:20:42;;;;;;;;;;;9.10;99.90;;;;;;5061892;28;19948;-80
2022/11/06 07:23:07;;;;;;;;;;;9.20;99.90;;;;;;5081022;28;19909;-84
2022/11/06 07:25:33;;;;;;;;;;;9.20;99.90;;;;;;5085766;28;19909;-84
2022/11/06 07:28:00;;;;;;;;;;;9.30;99.90;;;;;;5082956;28;19956;-84
2022/11/06 07:30:25;;;;;;;;;;;9.30;99.90;;;;;;5065156;28;19924;-84
2022/11/06 07:32:50;;;;;;;;;;;9.40;99.90;;;;;;5065161;28;19909;-84
2022/11/06 07:35:16;;;;;;;;;;;9.50;99.90;;;;;;5062883;28;19908;-81
2022/11/06 07:37:42;;;;;;;;;;;9.60;99.90;;;;;;5060617;28;20340;-83
2022/11/06 07:40:07;;;;;;;;;;;9.70;99.90;;;;;;5064190;28;19920;-84
2022/11/06 07:42:33;;;;;;;;;;;9.80;99.90;;;;;;5082883;28;19908;-83
2022/11/06 07:44:58;;;;;;;;;;;9.90;99.90;;;;;;5083382;28;19908;-81
2022/11/06 07:47:24;;;;;;;;;;;10.00;99.90;;;;;;5080724;28;19913;-84
2022/11/06 07:49:49;;;;;;;;;;;10.10;99.90;;;;;;5078855;28;19944;-82
2022/11/06 07:52:15;;;;;;;;;;;10.30;99.90;;;;;;5077258;28;19908;-82
2022/11/06 07:54:40;;;;;;;;;;;10.40;99.90;;;;;;5077371;28;19912;-80
2022/11/06 07:57:06;;;;;;;;;;;10.60;99.90;;;;;;5077517;28;19959;-83
2022/11/06 07:59:32;;;;;;;;;;;10.80;99.90;;;;;;5077011;28;19908;-81
2022/11/06 08:01:58;;;;;;;;;;;10.80;99.90;;;;;;5077364;28;19908;-83
2022/11/06 08:04:23;;;;;;;;;;;10.90;99.90;;;;;;5059995;28;19919;-84
2022/11/06 08:06:48;;;;;;;;;;;10.90;99.90;;;;;;5058986;28;19909;-82
2022/11/06 08:09:15;;;;;;;;;;;10.90;99.90;;;;;;5077612;28;19917;-80
2022/11/06 08:11:40;;;;;;;;;;;10.80;99.90;;;;;;5078167;28;20317;-81
2022/11/06 08:14:06;;;;;;;;;;;10.70;99.90;;;;;;5064071;28;19953;-80
2022/11/06 08:16:32;;;;;;;;;;;10.80;99.90;;;;;;5099429;28;19912;-81
2022/11/06 08:18:58;;;;;;;;;;;10.80;99.90;;;;;;5098650;28;19934;-79
2022/11/06 08:21:23;;;;;;;;;;;10.80;99.90;;;;;;5101544;28;19973;-80
2022/11/06 08:23:48;;;;;;;;;;;10.90;99.90;;;;;;5099028;28;19930;-80
2022/11/06 08:26:14;;;;;;;;;;;11.00;99.90;;;;;;5098613;28;19908;-80
2022/11/06 08:28:40;;;;;;;;;;;11.10;99.90;;;;;;5081090;28;20022;-79
2022/11/06 08:31:06;;;;;;;;;;;11.40;99.90;;;;;;5100229;28;20371;-80
2022/11/06 08:33:33;;;;;;;;;;;11.70;99.90;;;;;;5097992;28;19914;-80
2022/11/06 08:36:02;;;;;;;;;;;12.00;99.90;;;;;;5098041;28;20359;-80
2022/11/06 08:38:27;;;;;;;;;;;12.20;99.90;;;;;;5096744;28;19908;-80
2022/11/06 08:40:53;;;;;;;;;;;12.20;99.90;;;;;;5076978;28;19913;-81
2022/11/06 08:43:19;;;;;;;;;;;12.20;99.90;;;;;;5095873;28;19922;-82
2022/11/06 08:45:44;;;;;;;;;;;12.20;99.90;;;;;;5077360;28;19918;-81
2022/11/06 08:48:10;;;;;;;;;;;12.20;99.90;;;;;;5077029;28;20395;-82
2022/11/06 08:50:37;;;;;;;;;;;12.20;99.90;;;;;;5095271;28;19934;-84
2022/11/06 08:53:03;;;;;;;;;;;12.20;99.90;;;;;;5095529;28;20291;-80
2022/11/06 08:55:32;;;;;;;;;;;12.10;99.90;;;;;;5077656;28;20400;-80
2022/11/06 08:57:57;;;;;;;;;;;12.10;99.90;;;;;;5097320;28;19908;-81
2022/11/06 09:00:23;;;;;;;;;;;12.10;99.90;;;;;;5099904;28;19920;-81
2022/11/06 09:02:48;;;;;;;;;;;12.20;99.90;;;;;;5097912;28;19908;-80
2022/11/06 09:05:13;;;;;;;;;;;12.30;99.90;;;;;;5097730;28;19912;-82
2022/11/06 09:07:39;;;;;;;;;;;12.40;99.90;;;;;;5097694;28;20355;-79
2022/11/06 09:10:05;;;;;;;;;;;12.40;99.90;;;;;;5098456;28;20003;-80
2022/11/06 09:12:30;;;;;;;;;;;12.60;99.90;;;;;;5081060;28;20015;-82
2022/11/06 09:14:55;;;;;;;;;;;12.70;99.90;;;;;;5081548;28;19909;-80
2022/11/06 09:17:23;;;;;;;;;;;12.90;99.90;;;;;;5100337;28;20307;-84
2022/11/06 09:19:51;;;;;;;;;;;13.00;99.90;;;;;;5099606;28;19908;-81
2022/11/06 09:22:17;;;;;;;;;;;13.10;99.90;;;;;;5079094;28;19908;-81
2022/11/06 09:24:42;;;;;;;;;;;13.00;99.90;;;;;;5099270;28;19919;-84
2022/11/06 09:27:08;;;;;;;;;;;13.10;99.90;;;;;;5098125;28;19943;-84
2022/11/06 09:29:33;;;;;;;;;;;13.30;99.90;;;;;;5095914;28;20401;-84
2022/11/06 09:31:58;;;;;;;;;;;13.50;99.90;;;;;;5077470;28;19908;-83
2022/11/06 09:34:24;;;;;;;;;;;13.80;99.90;;;;;;5096332;28;20314;-83
2022/11/06 09:36:49;;;;;;;;;;;13.90;99.90;;;;;;5110042;28;19913;-80
2022/11/06 09:39:15;;;;;;;;;;;13.70;99.90;;;;;;5077735;28;19908;-79
2022/11/06 09:41:54;;;;;;;;;;;13.70;99.90;;;;;;5094435;28;19965;-80
2022/11/06 09:44:36;;;;;;;;;;;13.80;99.90;;;;;;5095342;28;20003;-79
2022/11/06 09:47:05;;;;;;;;;;;13.90;99.90;;;;;;5076757;28;19908;-81
2022/11/06 09:49:34;;;;;;;;;;;13.90;99.90;;;;;;5096098;28;19968;-81
2022/11/06 09:52:02;;;;;;;;;;;14.10;99.90;;;;;;5075910;28;20004;-80
2022/11/06 09:54:31;;;;;;;;;;;14.30;99.90;;;;;;5095905;28;20329;-82
2022/11/06 09:57:09;;;;;;;;;;;14.60;99.90;;;;;;5092604;27;19919;-79
2022/11/06 09:59:36;;;;;;;;;;;14.80;99.90;;;;;;5092650;28;19913;-80
2022/11/06 10:02:01;;;;;;;;;;;14.80;99.90;;;;;;5093206;28;19931;-81
2022/11/06 10:04:48;;;;;;;;;;;14.80;99.90;;;;;;5091202;28;20371;-83
2022/11/06 10:07:30;;;;;;;;;;;14.70;99.90;;;;;;5094564;28;20016;-80
2022/11/06 10:09:56;;;;;;;;;;;14.80;99.90;;;;;;5090195;28;19915;-83
2022/11/06 10:12:27;;;;;;;;;;;14.80;99.90;;;;;;5093792;28;19909;-82
2022/11/06 10:14:52;;;;;;;;;;;15.20;99.90;;;;;;5091880;28;19912;-84
2022/11/06 10:17:47;;;;;;;;;;;15.30;99.90;;;;;;5091350;28;20007;-82
2022/11/06 10:20:18;;;;;;;;;;;15.30;99.90;;;;;;5089344;28;19920;-79
2022/11/06 10:23:00;;;;;;;;;;;15.20;99.90;;;;;;5094544;28;20379;-80
2022/11/06 10:25:44;;;;;;;;;;;15.30;99.90;;;;;;5094410;28;19933;-79
2022/11/06 10:28:12;;;;;;;;;;;15.30;99.90;;;;;;5093946;28;20256;-81
2022/11/06 10:30:44;;;;;;;;;;;15.40;99.90;;;;;;5094962;28;19931;-83
2022/11/06 10:33:09;;;;;;;;;;;15.40;99.90;;;;;;5095312;28;19908;-80
2022/11/06 10:35:42;;;;;;;;;;;15.20;99.90;;;;;;5091883;28;19912;-81
2022/11/06 10:38:08;;;;;;;;;;;15.20;99.90;;;;;;5090544;28;19908;-79
2022/11/06 10:40:34;;;;;;;;;;;14.90;99.90;;;;;;5091470;28;19952;-78
2022/11/06 10:43:07;;;;;;;;;;;15.00;99.90;;;;;;5093163;28;19909;-80
2022/11/06 10:45:33;;;;;;;;;;;15.10;99.90;;;;;;5093561;28;19915;-80
2022/11/06 10:48:05;;;;;;;;;;;15.00;99.90;;;;;;5092477;28;19952;-79
2022/11/06 10:50:41;;;;;;;;;;;14.80;99.90;;;;;;5090654;28;19912;-80
2022/11/06 10:53:22;;;;;;;;;;;14.70;99.90;;;;;;5093242;28;20363;-79
2022/11/06 10:55:51;;;;;;;;;;;14.50;99.90;;;;;;5103065;28;19945;-80
2022/11/06 10:58:26;;;;;;;;;;;14.40;99.90;;;;;;5112053;28;19913;-82
2022/11/06 11:00:52;;;;;;;;;;;14.40;99.90;;;;;;5113505;28;20017;-79
2022/11/06 11:03:35;;;;;;;;;;;14.70;99.90;;;;;;5112980;28;20332;-80
2022/11/06 11:06:03;;;;;;;;;;;15.30;99.90;;;;;;5110994;28;19966;-84
2022/11/06 11:08:45;;;;;;;;;;;15.50;99.90;;;;;;5096785;28;20329;-82
2022/11/06 11:11:13;;;;;;;;;;;15.30;99.90;;;;;;5098805;28;19908;-80
2022/11/06 11:13:46;;;;;;;;;;;15.10;99.90;;;;;;5099111;28;19908;-79
2022/11/06 11:16:17;;;;;;;;;;;15.00;99.90;;;;;;5096355;28;19912;-81
2022/11/06 11:18:46;;;;;;;;;;;14.90;99.90;;;;;;5100110;28;19908;-81
2022/11/06 11:21:12;;;;;;;;;;;14.80;99.90;;;;;;5098003;28;19951;-80
2022/11/06 11:23:37;;;;;;;;;;;14.80;99.90;;;;;;5095927;28;19915;-79
2022/11/06 11:26:22;;;;;;;;;;;14.80;99.90;;;;;;5099499;28;19908;-85
2022/11/06 11:28:49;;;;;;;;;;;15.00;99.90;;;;;;5099650;28;19915;-82
2022/11/06 11:31:15;;;;;;;;;;;15.10;99.90;;;;;;5096872;28;19908;-81
2022/11/06 11:33:47;;;;;;;;;;;15.30;99.90;;;;;;5097706;28;20061;-80
2022/11/06 11:36:12;;;;;;;;;;;15.50;99.90;;;;;;5097564;28;20397;-79
2022/11/06 11:38:39;;;;;;;;;;;15.50;99.90;;;;;;5098754;28;19908;-78
2022/11/06 11:41:24;;;;;;;;;;;15.50;99.90;;;;;;5099333;28;20020;-81
2022/11/06 11:44:08;;;;;;;;;;;15.50;99.90;;;;;;5098840;28;19914;-84
2022/11/06 11:46:34;;;;;;;;;;;15.60;99.90;;;;;;5098829;28;19908;-85
2022/11/06 11:49:01;;;;;;;;;;;15.70;99.90;;;;;;5096169;28;19970;-82
2022/11/06 11:51:32;;;;;;;;;;;15.70;99.90;;;;;;5097643;28;19916;-79
2022/11/06 11:54:05;;;;;;;;;;;15.80;99.90;;;;;;5099674;28;19908;-80
2022/11/06 11:56:31;;;;;;;;;;;15.90;99.90;;;;;;5097831;28;19995;-82
2022/11/06 11:58:58;;;;;;;;;;;16.00;99.90;;;;;;5097879;28;19940;-80
2022/11/06 12:01:36;;;;;;;;;;;16.10;99.90;;;;;;5096491;28;19908;-79
2022/11/06 12:04:06;;;;;;;;;;;15.90;99.90;;;;;;5096251;28;20015;-79
2022/11/06 12:06:31;;;;;;;;;;;15.90;99.90;;;;;;5095534;28;20363;-79
2022/11/06 12:08:57;;;;;;;;;;;15.70;99.90;;;;;;5091931;23;19925;-80
2022/11/06 12:11:24;;;;;;;;;;;15.50;99.90;;;;;;5058063;28;20306;-80
2022/11/06 12:14:09;;;;;;;;;;;15.40;99.90;;;;;;5039556;28;19913;-80
2022/11/06 12:16:34;;;;;;;;;;;15.40;99.90;;;;;;5039040;28;19917;-80
2022/11/06 12:19:00;;;;;;;;;;;15.30;99.90;;;;;;5039215;28;20345;-80
2022/11/06 12:21:28;;;;;;;;;;;15.10;99.90;;;;;;5058178;28;19908;-81
2022/11/06 12:23:54;;;;;;;;;;;15.00;99.90;;;;;;5040794;28;19984;-80
2022/11/06 12:26:32;;;;;;;;;;;15.00;99.90;;;;;;5057808;28;19913;-80
2022/11/06 12:29:06;;;;;;;;;;;15.00;99.90;;;;;;5040256;28;19940;-80
2022/11/06 12:31:31;;;;;;;;;;;15.10;99.90;;;;;;5039471;28;19909;-80
2022/11/06 12:33:59;;;;;;;;;;;15.50;99.90;;;;;;5039488;28;19908;-80
2022/11/06 12:36:26;;;;;;;;;;;16.10;99.90;;;;;;5056878;28;19913;-82
2022/11/06 12:38:58;;;;;;;;;;;16.50;99.90;;;;;;5039254;28;19909;-81
2022/11/06 12:41:34;;;;;;;;;;;16.20;99.90;;;;;;5058016;28;20000;-81
2022/11/06 12:44:00;;;;;;;;;;;15.90;99.90;;;;;;5057288;28;19912;-81
2022/11/06 12:46:25;;;;;;;;;;;15.80;99.90;;;;;;5057546;28;19916;-81
2022/11/06 12:49:00;;;;;;;;;;;17.60;99.90;;;;;;5038549;28;19916;-80
2022/11/06 12:51:28;;;;;;;;;;;18.70;99.90;;;;;;5056374;28;19916;-81
2022/11/06 12:54:12;;;;;;;;;;;18.80;99.90;;;;;;5038745;28;20265;-81
2022/11/06 12:56:37;;;;;;;;;;;19.90;99.90;;;;;;5038070;28;19913;-80
2022/11/06 12:59:21;;;;;;;;;;;20.80;99.90;;;;;;5038397;28;20323;-81
2022/11/06 13:01:56;;;;;;;;;;;19.70;99.90;;;;;;5056733;28;19908;-81
2022/11/06 13:04:34;;;;;;;;;;;18.60;99.90;;;;;;5038339;28;19955;-81
2022/11/06 13:07:05;;;;;;;;;;;18.00;99.90;;;;;;5038328;28;19913;-81
2022/11/06 13:09:33;;;;;;;;;;;17.50;99.90;;;;;;5037983;28;19947;-81
2022/11/06 13:12:04;;;;;;;;;;;16.90;99.90;;;;;;5037616;28;19920;-81
2022/11/06 13:14:45;;;;;;;;;;;16.50;99.90;;;;;;5055796;28;19912;-80
2022/11/06 13:17:26;;;;;;;;;;;16.30;99.90;;;;;;5038037;28;19913;-81
2022/11/06 13:19:59;;;;;;;;;;;16.10;99.90;;;;;;5055867;28;19935;-81
2022/11/06 13:22:30;;;;;;;;;;;16.00;99.90;;;;;;5056361;28;19905;-81
2022/11/06 13:25:05;;;;;;;;;;;16.00;99.90;;;;;;5037861;28;20368;-81
2022/11/06 13:27:49;;;;;;;;;;;15.80;99.90;;;;;;5039072;28;19908;-81
2022/11/06 13:30:19;;;;;;;;;;;15.60;99.90;;;;;;5059113;28;19916;-81
2022/11/06 13:33:00;;;;;;;;;;;15.50;99.90;;;;;;5060587;28;19913;-81
2022/11/06 13:35:26;;;;;;;;;;;15.40;99.90;;;;;;5040153;28;19913;-81
2022/11/06 13:37:53;;;;;;;;;;;15.30;99.90;;;;;;5040389;28;19967;-82
2022/11/06 13:40:37;;;;;;;;;;;15.40;99.90;;;;;;5041197;28;19955;-80
2022/11/06 13:43:09;;;;;;;;;;;15.40;99.90;;;;;;5042767;28;20319;-81
2022/11/06 13:45:46;;;;;;;;;;;15.30;99.90;;;;;;5059117;28;19991;-81
2022/11/06 13:48:26;;;;;;;;;;;15.20;99.90;;;;;;5059457;28;19955;-81
2022/11/06 13:51:04;;;;;;;;;;;15.10;99.90;;;;;;5058583;28;19976;-81
2022/11/06 13:53:36;;;;;;;;;;;14.90;99.90;;;;;;5058389;28;19913;-80
2022/11/06 13:56:11;;;;;;;;;;;14.80;99.90;;;;;;5040000;28;20367;-80
2022/11/06 13:58:37;;;;;;;;;;;14.70;99.90;;;;;;5042556;28;19964;-80
2022/11/06 14:01:08;;;;;;;;;;;14.50;99.90;;;;;;5059961;28;19959;-80
2022/11/06 14:03:33;;;;;;;;;;;14.30;99.90;;;;;;5040567;28;19908;-81
2022/11/06 14:05:59;;;;;;;;;;;14.20;99.90;;;;;;5058456;28;19913;-80
2022/11/06 14:08:24;;;;;;;;;;;14.10;99.90;;;;;;5057044;28;20000;-80
2022/11/06 14:10:57;;;;;;;;;;;14.10;99.90;;;;;;5058242;28;19909;-81
2022/11/06 14:13:25;;;;;;;;;;;14.10;99.90;;;;;;5056699;28;19932;-84
2022/11/06 14:15:58;;;;;;;;;;;14.10;99.90;;;;;;5032084;28;19917;-85
2022/11/06 14:18:23;;;;;;;;;;;14.20;99.90;;;;;;5027539;28;19909;-84
2022/11/06 14:21:09;;;;;;;;;;;14.10;99.90;;;;;;5056265;28;19915;-84
2022/11/06 14:23:44;;;;;;;;;;;14.10;99.90;;;;;;5055054;28;20395;-85
2022/11/06 14:26:11;;;;;;;;;;;14.10;99.90;;;;;;5039320;28;19909;-84
2022/11/06 14:28:37;;;;;;;;;;;14.00;99.90;;;;;;5054924;28;20326;-85
2022/11/06 14:31:03;;;;;;;;;;;13.90;99.90;;;;;;5038406;28;19919;-82
2022/11/06 14:33:41;;;;;;;;;;;13.90;99.90;;;;;;5056782;28;20423;-83
2022/11/06 14:36:22;;;;;;;;;;;13.90;99.90;;;;;;5056936;28;19913;-82
2022/11/06 14:38:48;;;;;;;;;;;13.80;99.90;;;;;;5039971;28;19909;-82
2022/11/06 14:41:32;;;;;;;;;;;13.80;99.90;;;;;;5057654;28;20008;-82
2022/11/06 14:43:59;;;;;;;;;;;13.80;99.90;;;;;;5043401;28;19909;-82
2022/11/06 14:46:24;;;;;;;;;;;13.70;99.90;;;;;;5061650;28;19908;-82